Terminal Aerodrome Forecast
Issued by NWS Charleston, WV

Current Version | Previous Version | Graphics & Text | Print | Product List | Glossary On
Versions: 1 2 3 4 5 6 7 8 9 10 11 12 13 14 15 16 17 18 19 20 21 22 23 24 25 26 27
000
FTUS41 KRLX 260800 AAA
TAFEKN
TAF AMD
KEKN 260856Z 2609/2706 00000KT P6SM BKN080
     FM261100 00000KT 4SM -SNRA BR SCT001 OVC045
     FM261600 VRB03KT 3/4SM -SN BR SCT001 OVC020
     FM270000 29004KT 3SM BR OVC020
     FM270200 00000KT 4SM BR BKN020=

USA.gov is the U.S. government's official web portal to all federal, state and local government web resources and services.